KMQS

Chester County G O Carlson Airport

Coatesville, Pennsylvania, USA
METAR KMQS 172215Z AUTO VRB05KT 10SM CLR 28/22 A2998 RMK AO2
Observed Flight Rules
Aug-17 @ 22:15 UTC (22 minutes ago) Visual Flight Rules
Wind Visibility Clouds
Variable at 5 knots 10 miles
  • Clear skies
Temperatures Readings
Current 28°C / 82°F
Dewpoint 22°C / 72°F
Humidity 70%
Altimeter 29.98" Hg
Pressure 1015 hPa
Elevation 201
METAR KMQS 172215Z AUTO VRB05KT 10SM CLR 28/22 A2998 RMK AO2
Observed Flight Rules
Aug-17 @ 22:15 UTC
(22 minutes ago)
VFR
Wind Visibility
Variable at 5 knots 10 miles
Clouds
  • Clear skies
Temperature Dewpoint
28°C / 82°F 22°C / 72°F
Humidity Altimeter Pressure
70% 29.98" Hg 1015 hPa